Time;durP1;ratioP1;P1;durP2;ratioP2;P2;SDS_P1;SDS_P2;PMS_P1;PMS_P2;Temp;Humidity;BMP_temperature;BMP_pressure;BME280_temperature;BME280_humidity;BME280_pressure;Samples;Min_cycle;Max_cycle;Signal;HPM_P1;HPM_P2
2021/10/27 00:00:25;;;;;;;18.17;8.70;;;10.20;99.90;;;;;;5095420;28;20424;-84
2021/10/27 00:02:51;;;;;;;15.02;7.95;;;9.80;99.90;;;;;;5094325;28;20027;-82
2021/10/27 00:05:17;;;;;;;15.73;8.25;;;9.80;99.90;;;;;;5094856;28;20073;-80
2021/10/27 00:07:42;;;;;;;17.17;8.65;;;9.80;99.90;;;;;;5090220;28;20068;-83
2021/10/27 00:10:10;;;;;;;15.68;7.97;;;9.80;99.90;;;;;;5089827;28;20399;-85
2021/10/27 00:12:37;;;;;;;15.60;8.48;;;9.80;99.90;;;;;;5088583;28;20069;-84
2021/10/27 00:15:05;;;;;;;13.95;7.82;;;10.00;99.90;;;;;;5091987;28;20024;-84
2021/10/27 00:17:31;;;;;;;14.82;8.15;;;9.80;99.90;;;;;;5087189;28;20024;-83
2021/10/27 00:19:56;;;;;;;13.63;8.02;;;9.90;99.90;;;;;;5093133;28;20081;-81
2021/10/27 00:22:22;;;;;;;15.13;8.10;;;9.70;99.90;;;;;;5091020;28;20042;-84
2021/10/27 00:24:48;;;;;;;15.95;8.25;;;9.90;99.90;;;;;;5088958;28;20665;-86
2021/10/27 00:27:14;;;;;;;11.95;7.57;;;9.90;99.90;;;;;;5088377;28;20154;-87
2021/10/27 00:29:41;;;;;;;14.43;7.72;;;9.90;99.90;;;;;;5088222;28;20024;-83
2021/10/27 00:32:07;;;;;;;12.05;7.40;;;9.90;99.90;;;;;;5090409;28;20025;-82
2021/10/27 00:34:33;;;;;;;15.77;7.80;;;9.90;99.90;;;;;;5087504;28;20028;-80
2021/10/27 00:36:59;;;;;;;12.82;7.40;;;9.90;99.90;;;;;;5090926;28;20019;-83
2021/10/27 00:39:26;;;;;;;12.15;7.82;;;10.20;99.90;;;;;;5086835;28;20028;-82
2021/10/27 00:41:52;;;;;;;15.25;7.68;;;9.90;99.90;;;;;;5093735;28;20086;-83
2021/10/27 00:44:23;;;;;;;13.27;7.35;;;9.80;99.90;;;;;;5092420;28;20067;-84
2021/10/27 00:47:05;;;;;;;12.30;7.93;;;9.80;99.90;;;;;;5090975;28;20030;-81
2021/10/27 00:49:31;;;;;;;10.68;7.50;;;9.90;99.90;;;;;;5090138;28;20023;-80
2021/10/27 00:51:58;;;;;;;13.82;7.47;;;9.90;99.90;;;;;;5089633;28;20032;-85
2021/10/27 00:54:25;;;;;;;15.02;8.10;;;9.90;99.90;;;;;;5102355;28;20484;-83
2021/10/27 00:56:53;;;;;;;12.85;7.43;;;9.80;99.90;;;;;;5096655;28;20024;-83
2021/10/27 00:59:20;;;;;;;13.20;7.72;;;9.80;99.90;;;;;;5095718;28;20032;-85
2021/10/27 01:01:47;;;;;;;16.02;8.25;;;11.00;99.90;;;;;;5090810;28;20028;-82
2021/10/27 01:04:12;;;;;;;14.90;8.18;;;9.80;99.90;;;;;;5091144;28;20024;-86
2021/10/27 01:06:38;;;;;;;14.90;8.07;;;10.30;99.90;;;;;;5090964;28;20495;-86
2021/10/27 01:09:04;;;;;;;12.18;7.65;;;9.80;99.90;;;;;;5092040;28;20119;-82
2021/10/27 01:11:30;;;;;;;14.00;7.72;;;10.40;99.90;;;;;;5094780;28;20016;-83
2021/10/27 01:13:56;;;;;;;15.68;7.72;;;9.90;99.90;;;;;;5091505;28;20142;-85
2021/10/27 01:16:22;;;;;;;13.68;7.90;;;10.00;99.90;;;;;;5085364;28;20055;-81
2021/10/27 01:18:50;;;;;;;15.18;8.00;;;10.50;99.90;;;;;;5090142;28;20028;-82
2021/10/27 01:21:21;;;;;;;17.30;7.50;;;9.90;99.90;;;;;;5083796;28;20059;-87
2021/10/27 01:23:47;;;;;;;11.73;7.22;;;9.80;99.90;;;;;;5087882;28;20032;-84
2021/10/27 01:26:13;;;;;;;13.70;7.43;;;9.90;99.90;;;;;;5090727;28;20095;-82
2021/10/27 01:28:43;;;;;;;14.25;7.30;;;9.70;99.90;;;;;;5086062;28;20024;-82
2021/10/27 01:31:10;;;;;;;10.32;6.53;;;9.90;99.90;;;;;;5090598;28;20029;-84
2021/10/27 01:33:36;;;;;;;11.40;6.75;;;9.90;99.90;;;;;;5096551;28;20016;-83
2021/10/27 01:36:03;;;;;;;12.00;6.85;;;9.90;99.90;;;;;;5099331;28;20020;-83
2021/10/27 01:38:30;;;;;;;9.52;6.47;;;9.80;99.90;;;;;;5096582;28;20035;-81
2021/10/27 01:40:56;;;;;;;10.80;6.97;;;10.20;99.90;;;;;;5097453;28;20064;-84
2021/10/27 01:43:22;;;;;;;12.07;6.50;;;10.00;99.90;;;;;;5095292;28;20020;-83
2021/10/27 01:45:48;;;;;;;10.25;7.25;;;9.90;99.90;;;;;;5090751;28;20092;-83
2021/10/27 01:48:13;;;;;;;12.18;7.50;;;10.30;99.90;;;;;;5095405;28;20052;-87
2021/10/27 01:50:40;;;;;;;11.68;6.75;;;9.90;99.90;;;;;;5091667;28;20061;-84
2021/10/27 01:53:06;;;;;;;13.73;7.35;;;9.90;99.90;;;;;;5098900;28;20027;-82
2021/10/27 01:55:32;;;;;;;10.88;6.72;;;9.90;99.90;;;;;;5087187;28;20039;-86
2021/10/27 01:57:57;;;;;;;10.98;7.32;;;9.90;99.90;;;;;;5093924;28;20567;-84
2021/10/27 02:00:23;;;;;;;11.63;7.32;;;10.50;99.90;;;;;;5090724;28;20104;-83
2021/10/27 02:02:48;;;;;;;12.25;7.95;;;9.90;99.90;;;;;;5092400;28;20024;-83
2021/10/27 02:05:14;;;;;;;12.55;7.25;;;9.90;99.90;;;;;;5083410;28;20377;-83
2021/10/27 02:07:40;;;;;;;13.77;7.60;;;10.00;99.90;;;;;;5086827;28;20608;-82
2021/10/27 02:10:09;;;;;;;11.48;7.05;;;10.00;99.90;;;;;;5087356;28;20083;-81
2021/10/27 02:12:38;;;;;;;9.38;6.82;;;10.00;99.90;;;;;;5093242;28;20035;-86
2021/10/27 02:15:05;;;;;;;13.50;7.00;;;10.10;99.90;;;;;;5093119;28;20024;-84
2021/10/27 02:17:31;;;;;;;10.82;7.03;;;9.90;99.90;;;;;;5095315;28;20016;-83
2021/10/27 02:19:56;;;;;;;10.30;7.40;;;10.00;99.90;;;;;;5093502;28;20484;-80
2021/10/27 02:22:22;;;;;;;10.60;7.32;;;10.40;99.90;;;;;;5095783;28;20923;-83
2021/10/27 02:24:48;;;;;;;11.65;7.28;;;9.90;99.90;;;;;;5094846;28;20087;-81
2021/10/27 02:27:14;;;;;;;13.43;7.50;;;9.90;99.90;;;;;;5091546;28;20450;-84
2021/10/27 02:29:39;;;;;;;11.95;7.50;;;10.70;99.90;;;;;;5090599;28;20052;-82
2021/10/27 02:32:07;;;;;;;11.80;6.57;;;9.90;99.90;;;;;;5086714;28;20034;-84
2021/10/27 02:34:33;;;;;;;11.40;6.95;;;9.90;99.90;;;;;;5085193;28;20021;-83
2021/10/27 02:36:59;;;;;;;10.63;7.13;;;9.90;99.90;;;;;;5083182;28;20043;-84
2021/10/27 02:39:25;;;;;;;10.52;6.78;;;9.90;99.90;;;;;;5088001;28;20024;-83
2021/10/27 02:41:51;;;;;;;10.30;6.55;;;10.00;99.90;;;;;;5092164;28;20532;-81
2021/10/27 02:44:17;;;;;;;11.30;6.88;;;9.90;99.90;;;;;;5096120;28;20072;-84
2021/10/27 02:46:43;;;;;;;10.88;6.85;;;10.10;99.90;;;;;;5096301;28;20100;-84
2021/10/27 02:49:09;;;;;;;11.93;6.45;;;9.90;99.90;;;;;;5092913;28;20024;-86
2021/10/27 02:51:35;;;;;;;13.48;6.32;;;10.00;99.90;;;;;;5090239;28;20020;-85
2021/10/27 02:54:01;;;;;;;12.45;7.00;;;10.00;99.90;;;;;;5094126;28;20028;-84
2021/10/27 02:56:26;;;;;;;9.85;6.35;;;9.90;99.90;;;;;;5092577;28;20062;-85
2021/10/27 02:58:52;;;;;;;14.55;6.78;;;9.90;99.90;;;;;;5094137;28;20024;-85
2021/10/27 03:01:18;;;;;;;11.05;6.78;;;9.90;99.90;;;;;;5097668;28;20055;-86
2021/10/27 03:03:44;;;;;;;10.13;6.55;;;9.90;99.90;;;;;;5093167;28;20027;-80
2021/10/27 03:06:09;;;;;;;10.75;6.65;;;9.90;99.90;;;;;;5094748;28;20092;-82
2021/10/27 03:08:35;;;;;;;11.75;6.18;;;9.90;99.90;;;;;;5085994;28;20044;-83
2021/10/27 03:11:01;;;;;;;11.57;6.50;;;10.00;99.90;;;;;;5091881;28;20035;-81
2021/10/27 03:13:27;;;;;;;12.20;6.65;;;10.00;99.90;;;;;;5087911;28;20034;-81
2021/10/27 03:15:52;;;;;;;11.40;6.55;;;9.90;99.90;;;;;;5093844;28;20024;-83
2021/10/27 03:18:18;;;;;;;8.93;6.10;;;9.90;99.90;;;;;;5090657;28;20024;-85
2021/10/27 03:20:44;;;;;;;10.10;6.07;;;9.90;99.90;;;;;;5092570;28;20037;-84
2021/10/27 03:23:10;;;;;;;10.30;6.35;;;10.60;99.90;;;;;;5096344;28;20063;-82
2021/10/27 03:25:36;;;;;;;10.93;6.15;;;9.90;99.90;;;;;;5089020;28;20074;-81
2021/10/27 03:28:01;;;;;;;13.18;6.40;;;10.00;99.90;;;;;;5091604;28;20404;-87
2021/10/27 03:30:28;;;;;;;13.13;6.93;;;10.00;99.90;;;;;;5090789;28;20020;-84
2021/10/27 03:32:55;;;;;;;12.65;6.85;;;10.00;99.90;;;;;;5091329;28;20457;-83
2021/10/27 03:35:21;;;;;;;10.55;6.40;;;10.10;99.90;;;;;;5089350;28;20024;-84
2021/10/27 03:37:46;;;;;;;9.93;5.93;;;10.00;99.90;;;;;;5094440;28;20028;-83
2021/10/27 03:40:13;;;;;;;11.07;6.00;;;10.10;99.90;;;;;;5097251;28;20038;-83
2021/10/27 03:42:38;;;;;;;11.27;6.43;;;10.00;99.90;;;;;;5094132;28;20342;-86
2021/10/27 03:45:04;;;;;;;10.25;6.00;;;10.50;99.90;;;;;;5095139;28;20056;-85
2021/10/27 03:47:30;;;;;;;13.57;6.65;;;10.00;99.90;;;;;;5091742;28;20027;-84
2021/10/27 03:49:56;;;;;;;12.20;6.18;;;10.80;99.90;;;;;;5094568;28;20064;-82
2021/10/27 03:52:23;;;;;;;13.55;6.38;;;10.00;99.90;;;;;;5090468;28;20028;-80
2021/10/27 03:54:49;;;;;;;11.55;6.00;;;10.10;99.90;;;;;;5093149;28;20047;-85
2021/10/27 03:57:14;;;;;;;10.55;6.22;;;10.10;99.90;;;;;;5095808;28;20472;-83
2021/10/27 03:59:40;;;;;;;10.48;5.82;;;10.10;99.90;;;;;;5098992;28;20028;-84
2021/10/27 04:02:06;;;;;;;10.02;5.93;;;10.10;99.90;;;;;;5091496;28;20032;-84
2021/10/27 04:04:32;;;;;;;10.13;6.25;;;10.40;99.90;;;;;;5096573;28;20032;-83
2021/10/27 04:06:57;;;;;;;11.85;6.47;;;10.10;99.90;;;;;;5085213;28;20031;-84
2021/10/27 04:09:23;;;;;;;9.75;6.70;;;10.20;99.90;;;;;;5093031;28;20028;-85
2021/10/27 04:11:49;;;;;;;11.73;6.40;;;9.90;99.90;;;;;;5092404;28;20028;-86
2021/10/27 04:14:15;;;;;;;11.52;5.68;;;10.00;99.90;;;;;;5093727;28;20024;-84
2021/10/27 04:16:44;;;;;;;10.43;6.22;;;10.00;99.90;;;;;;5095359;28;20077;-86
2021/10/27 04:19:10;;;;;;;10.50;6.93;;;11.10;99.90;;;;;;5094041;28;20028;-87
2021/10/27 04:21:35;;;;;;;11.63;5.97;;;10.00;99.90;;;;;;5105739;28;20071;-85
2021/10/27 04:24:01;;;;;;;9.50;5.68;;;10.00;99.90;;;;;;5096188;28;20063;-84
2021/10/27 04:26:27;;;;;;;9.88;6.28;;;10.00;99.90;;;;;;5097284;28;20840;-86
2021/10/27 04:28:53;;;;;;;10.60;5.97;;;10.50;99.90;;;;;;5099903;28;20057;-85
2021/10/27 04:31:20;;;;;;;10.07;5.82;;;10.10;99.90;;;;;;5112814;28;20044;-83
2021/10/27 04:33:46;;;;;;;8.45;5.53;;;10.50;99.90;;;;;;5094107;28;20078;-86
2021/10/27 04:36:13;;;;;;;10.07;6.43;;;11.10;99.90;;;;;;5093456;28;20020;-83
2021/10/27 04:38:39;;;;;;;11.07;6.30;;;10.10;99.90;;;;;;5097743;28;20542;-83
2021/10/27 04:41:04;;;;;;;11.02;6.25;;;10.00;99.90;;;;;;5095187;28;20028;-82
2021/10/27 04:43:30;;;;;;;8.75;5.78;;;10.30;99.90;;;;;;5095204;28;20024;-86
2021/10/27 04:45:56;;;;;;;11.48;5.72;;;10.10;99.90;;;;;;5092485;28;20020;-83
2021/10/27 04:48:22;;;;;;;10.65;5.93;;;10.10;99.90;;;;;;5093023;28;20051;-85
2021/10/27 04:50:47;;;;;;;11.90;5.88;;;10.10;99.90;;;;;;5094770;28;20031;-82
2021/10/27 04:53:15;;;;;;;9.95;5.68;;;10.10;99.90;;;;;;5095531;28;20017;-85
2021/10/27 04:55:42;;;;;;;9.52;6.20;;;10.60;99.90;;;;;;5097207;28;20031;-84
2021/10/27 04:58:08;;;;;;;9.70;5.93;;;10.20;99.90;;;;;;5096151;28;20039;-83
2021/10/27 05:00:34;;;;;;;9.13;5.93;;;10.10;99.90;;;;;;5095324;28;20036;-82
2021/10/27 05:02:59;;;;;;;12.75;6.28;;;10.10;99.90;;;;;;5094464;28;20071;-84
2021/10/27 05:05:26;;;;;;;10.55;5.90;;;10.90;99.90;;;;;;5091718;28;20020;-85
2021/10/27 05:07:53;;;;;;;9.90;5.80;;;10.20;99.90;;;;;;5096177;28;20027;-83
2021/10/27 05:10:19;;;;;;;10.98;6.43;;;11.30;99.90;;;;;;5094918;28;20396;-82
2021/10/27 05:12:44;;;;;;;9.85;6.60;;;10.10;99.90;;;;;;5097000;28;20028;-80
2021/10/27 05:15:10;;;;;;;11.40;6.30;;;10.90;99.90;;;;;;5094109;28;20021;-83
2021/10/27 05:17:36;;;;;;;14.73;6.47;;;10.20;99.90;;;;;;5097648;28;20020;-87
2021/10/27 05:20:02;;;;;;;11.30;6.90;;;10.00;99.90;;;;;;5099717;28;20545;-83
2021/10/27 05:22:27;;;;;;;11.93;6.78;;;10.10;99.90;;;;;;5094458;28;20024;-83
2021/10/27 05:24:53;;;;;;;10.90;6.60;;;10.20;99.90;;;;;;5094539;28;20024;-84
2021/10/27 05:27:19;;;;;;;13.85;6.38;;;10.30;99.90;;;;;;5100792;28;20032;-87
2021/10/27 05:29:45;;;;;;;10.82;6.72;;;10.10;99.90;;;;;;5095732;28;20120;-84
2021/10/27 05:32:10;;;;;;;13.18;6.82;;;10.20;99.90;;;;;;5099793;28;20342;-85
2021/10/27 05:34:42;;;;;;;12.88;8.13;;;10.20;99.90;;;;;;5102201;28;20055;-84
2021/10/27 05:37:08;;;;;;;17.63;7.95;;;10.30;99.90;;;;;;5098318;28;20083;-85
2021/10/27 05:39:34;;;;;;;13.20;6.35;;;10.30;99.90;;;;;;5102886;28;20038;-84
2021/10/27 05:42:00;;;;;;;12.73;7.00;;;10.20;99.90;;;;;;5095923;28;20055;-84
2021/10/27 05:44:26;;;;;;;13.27;6.80;;;10.20;99.90;;;;;;5099856;28;20106;-84
2021/10/27 05:46:53;;;;;;;14.50;7.30;;;10.10;99.90;;;;;;5096401;28;20047;-83
2021/10/27 05:51:48;;;;;;;11.57;6.95;;;10.10;99.90;;;;;;5103960;28;20022;-85
2021/10/27 05:56:58;;;;;;;13.13;6.70;;;10.60;99.90;;;;;;5096300;28;20031;-85
2021/10/27 05:59:24;;;;;;;11.23;6.75;;;10.10;99.90;;;;;;5097560;28;20222;-83
2021/10/27 06:01:50;;;;;;;15.55;7.07;;;10.10;99.90;;;;;;5094234;28;20023;-85
2021/10/27 06:04:17;;;;;;;10.15;6.75;;;10.10;99.90;;;;;;5100488;28;20025;-82
2021/10/27 06:06:43;;;;;;;10.77;6.93;;;10.10;99.90;;;;;;5090923;28;20042;-82
2021/10/27 06:09:09;;;;;;;13.77;6.40;;;10.20;99.90;;;;;;5092312;28;20354;-83
2021/10/27 06:11:36;;;;;;;10.80;6.65;;;10.10;99.90;;;;;;5098113;28;20027;-83
2021/10/27 06:14:02;;;;;;;12.45;7.25;;;11.20;99.90;;;;;;5095237;28;20032;-86
2021/10/27 06:16:28;;;;;;;14.45;7.45;;;10.80;99.90;;;;;;5094968;28;20034;-82
2021/10/27 06:18:53;;;;;;;10.65;7.38;;;11.20;99.90;;;;;;5093804;28;20570;-83
2021/10/27 06:21:19;;;;;;;10.73;6.32;;;10.30;99.90;;;;;;5094304;28;20020;-86
2021/10/27 06:23:45;;;;;;;16.70;7.88;;;11.90;99.90;;;;;;5089861;28;20035;-83
2021/10/27 06:26:11;;;;;;;11.85;7.07;;;10.20;99.90;;;;;;5117618;27;20028;-83
2021/10/27 06:31:28;;;;;;;9.07;6.18;;;10.20;99.90;;;;;;5092018;28;20035;-86
2021/10/27 06:34:01;;;;;;;9.07;6.28;;;10.20;99.90;;;;;;5091064;28;20016;-85
2021/10/27 06:47:14;;;;;;;11.70;6.75;;;10.20;99.90;;;;;;5092806;28;20124;-85
2021/10/27 06:49:43;;;;;;;9.95;6.47;;;10.20;99.90;;;;;;5093947;28;20100;-86
2021/10/27 06:52:09;;;;;;;9.80;6.22;;;10.40;99.90;;;;;;5099775;28;20028;-86
2021/10/27 06:54:34;;;;;;;16.30;7.10;;;10.30;99.90;;;;;;5096181;28;20031;-86
2021/10/27 06:57:00;;;;;;;12.43;6.97;;;10.90;99.90;;;;;;5091733;28;20034;-86
2021/10/27 06:59:32;;;;;;;10.70;6.32;;;10.50;99.90;;;;;;5089479;28;20389;-86
2021/10/27 07:14:58;;;;;;;22.13;9.80;;;10.40;99.90;;;;;;5090136;28;20092;-83
2021/10/27 07:17:53;;;;;;;20.35;7.88;;;10.60;99.90;;;;;;5085335;28;20378;-84
2021/10/27 07:20:20;;;;;;;16.27;7.55;;;10.60;99.90;;;;;;5085538;28;20058;-86
2021/10/27 07:22:46;;;;;;;13.27;6.60;;;10.60;99.90;;;;;;5111202;27;20024;-85
2021/10/27 07:25:15;;;;;;;14.75;7.15;;;10.70;99.90;;;;;;5087923;28;20508;-83
2021/10/27 07:27:41;;;;;;;17.38;7.22;;;10.70;99.90;;;;;;5085064;28;20078;-85
2021/10/27 07:30:07;;;;;;;13.57;6.20;;;11.70;99.90;;;;;;5090284;28;20165;-86
2021/10/27 07:32:33;;;;;;;16.60;6.97;;;10.80;99.90;;;;;;5087417;28;20071;-84
2021/10/27 07:35:14;;;;;;;12.27;6.72;;;10.60;99.90;;;;;;5096001;28;20070;-85
2021/10/27 07:40:38;;;;;;;13.23;5.75;;;10.90;99.90;;;;;;5094723;28;19957;-85
2021/10/27 07:43:10;;;;;;;13.02;6.50;;;10.90;99.90;;;;;;5099235;28;20028;-84
2021/10/27 07:45:37;;;;;;;10.82;6.85;;;11.00;99.90;;;;;;5093465;28;20028;-85
2021/10/27 07:48:04;;;;;;;13.07;6.10;;;10.90;99.90;;;;;;5092405;28;20032;-85
2021/10/27 07:50:31;;;;;;;12.18;6.68;;;10.90;99.90;;;;;;5089641;28;20032;-83
2021/10/27 07:53:02;;;;;;;17.48;7.43;;;11.00;99.90;;;;;;5092857;28;20088;-83
2021/10/27 07:55:29;;;;;;;15.20;6.82;;;12.20;99.90;;;;;;5086241;28;20028;-84
2021/10/27 07:57:56;;;;;;;13.00;7.45;;;11.00;99.90;;;;;;5095023;28;20404;-81
2021/10/27 08:00:22;;;;;;;13.57;6.60;;;11.00;99.90;;;;;;5090971;28;20103;-86
2021/10/27 08:02:49;;;;;;;13.82;6.28;;;10.90;99.90;;;;;;5091424;28;20039;-84
2021/10/27 08:05:16;;;;;;;11.73;6.82;;;11.40;99.90;;;;;;5086319;28;20032;-86
2021/10/27 08:07:44;;;;;;;11.65;7.03;;;11.30;99.90;;;;;;5091314;28;20032;-82
2021/10/27 08:10:11;;;;;;;10.10;6.47;;;11.20;99.90;;;;;;5089657;28;20091;-83
2021/10/27 08:12:37;;;;;;;12.00;7.20;;;11.90;99.90;;;;;;5087455;28;20023;-87
2021/10/27 08:15:03;;;;;;;15.20;7.20;;;11.30;99.90;;;;;;5089418;28;20020;-85
2021/10/27 08:17:29;;;;;;;13.73;6.78;;;11.30;99.90;;;;;;5095221;28;20547;-85
2021/10/27 08:19:55;;;;;;;14.30;6.35;;;11.30;99.90;;;;;;5091424;28;20052;-85
2021/10/27 08:22:21;;;;;;;16.95;7.68;;;11.40;99.90;;;;;;5095403;28;20047;-86
2021/10/27 08:24:50;;;;;;;13.43;7.38;;;11.40;99.90;;;;;;5093217;28;20032;-82
2021/10/27 08:27:19;;;;;;;13.13;6.97;;;11.40;99.90;;;;;;5097042;28;20028;-83
2021/10/27 08:29:45;;;;;;;23.25;8.23;;;11.50;99.90;;;;;;5085706;28;20124;-85
2021/10/27 08:32:30;;;;;;;15.13;7.35;;;12.00;99.90;;;;;;5094812;28;20036;-85
2021/10/27 08:34:57;;;;;;;14.52;8.25;;;11.60;99.90;;;;;;5097160;28;20018;-83
2021/10/27 08:37:24;;;;;;;16.40;8.65;;;11.60;99.90;;;;;;5097908;28;20024;-85
2021/10/27 08:39:50;;;;;;;13.88;7.20;;;11.70;99.90;;;;;;5101413;28;20058;-85
2021/10/27 08:42:16;;;;;;;16.15;7.45;;;11.70;99.90;;;;;;5093855;28;20024;-83
2021/10/27 08:44:43;;;;;;;11.48;6.70;;;11.70;99.90;;;;;;5097275;28;20024;-84
2021/10/27 08:47:09;;;;;;;18.08;8.05;;;11.70;99.90;;;;;;5097878;28;20028;-84
2021/10/27 08:49:37;;;;;;;16.90;7.50;;;11.80;99.90;;;;;;5099350;28;20027;-81
2021/10/27 08:52:06;;;;;;;17.98;7.53;;;11.90;99.90;;;;;;5098401;28;20023;-82
2021/10/27 08:54:33;;;;;;;12.98;7.35;;;11.90;99.90;;;;;;5095454;28;20766;-82
2021/10/27 08:57:07;;;;;;;14.18;7.15;;;12.00;99.90;;;;;;5109523;22;20036;-87
2021/10/27 09:02:24;;;;;;;10.50;6.68;;;12.20;99.90;;;;;;5102993;28;20036;-87
2021/10/27 09:43:31;;;;;;;12.52;7.28;;;13.30;99.90;;;;;;5081456;28;20035;-88
2021/10/27 10:05:08;;;;;;;10.90;6.07;;;13.70;99.90;;;;;;5082366;28;20039;-88
2021/10/27 10:07:35;;;;;;;13.93;6.95;;;13.40;99.90;;;;;;5077662;28;20048;-85
2021/10/27 10:10:06;;;;;;;16.50;8.82;;;13.40;99.90;;;;;;5078257;28;20071;-84
2021/10/27 10:12:38;;;;;;;9.73;6.18;;;13.40;99.90;;;;;;5082466;28;20092;-88
2021/10/27 10:15:04;;;;;;;12.02;6.15;;;13.90;99.90;;;;;;5096341;28;20104;-85
2021/10/27 10:17:33;;;;;;;12.93;6.78;;;13.60;99.90;;;;;;5081815;28;20070;-86
2021/10/27 10:20:00;;;;;;;12.75;7.07;;;13.60;99.90;;;;;;5085036;28;20035;-89
2021/10/27 10:22:33;;;;;;;12.98;6.70;;;13.60;99.90;;;;;;5085588;28;20043;-87
2021/10/27 10:25:19;;;;;;;13.80;6.80;;;13.70;99.90;;;;;;5081503;28;20025;-88
2021/10/27 10:27:53;;;;;;;13.05;6.72;;;14.70;99.90;;;;;;5078438;28;20036;-86
2021/10/27 10:31:23;;;;;;;13.38;6.72;;;13.80;99.90;;;;;;5083774;28;20036;-86
2021/10/27 10:33:44;;;;;;;13.18;7.35;;;13.80;99.90;;;;;;5079098;28;20047;-87
2021/10/27 10:36:25;;;;;;;14.13;6.97;;;14.70;99.90;;;;;;5082062;28;20080;-87
2021/10/27 11:41:57;;;;;;;10.50;5.78;;;15.60;99.90;;;;;;5081924;28;20036;-87
2021/10/27 11:44:43;;;;;;;9.27;5.18;;;14.80;99.90;;;;;;5082955;28;20081;-87
2021/10/27 11:47:10;;;;;;;8.75;5.53;;;14.10;99.90;;;;;;5079913;28;20025;-88
2021/10/27 11:49:41;;;;;;;10.07;5.72;;;15.20;99.90;;;;;;5081031;28;20079;-88
2021/10/27 11:52:09;;;;;;;9.13;4.57;;;14.80;99.90;;;;;;5083920;28;20054;-88
2021/10/27 11:54:38;;;;;;;9.38;5.18;;;14.30;99.90;;;;;;5078285;28;20052;-88
2021/10/27 11:57:04;;;;;;;8.88;5.03;;;15.70;99.90;;;;;;5080643;28;20036;-87
2021/10/27 11:59:44;;;;;;;10.82;5.05;;;14.30;99.90;;;;;;5077195;28;20025;-86
2021/10/27 12:02:09;;;;;;;8.55;4.75;;;14.50;99.90;;;;;;5077766;28;20107;-86
2021/10/27 12:04:37;;;;;;;12.65;5.25;;;14.50;99.90;;;;;;5080076;28;20043;-88
2021/10/27 12:07:18;;;;;;;7.13;4.50;;;14.80;99.90;;;;;;5098108;28;20051;-86
2021/10/27 12:12:49;;;;;;;9.30;4.15;;;16.50;99.90;;;;;;5078409;28;20023;-84
2021/10/27 12:17:59;;;;;;;7.32;3.45;;;16.70;99.90;;;;;;5081968;28;20048;-85
2021/10/27 12:20:45;;;;;;;7.05;3.38;;;15.80;99.90;;;;;;5075691;28;20374;-87
2021/10/27 12:23:21;;;;;;;9.20;3.40;;;16.50;99.90;;;;;;5093591;28;20089;-87
2021/10/27 12:25:48;;;;;;;6.78;3.03;;;16.00;99.90;;;;;;5074014;28;20401;-88
2021/10/27 12:28:24;;;;;;;9.32;3.45;;;15.90;99.90;;;;;;5093504;28;20459;-88
2021/10/27 12:30:50;;;;;;;12.13;3.10;;;15.80;99.90;;;;;;5076767;28;20559;-86
2021/10/27 12:33:16;;;;;;;6.63;3.60;;;15.70;99.90;;;;;;5089842;28;20037;-88
2021/10/27 12:35:42;;;;;;;8.13;3.15;;;16.40;99.90;;;;;;5091624;28;20120;-88
2021/10/27 12:38:32;;;;;;;5.80;3.30;;;15.70;99.90;;;;;;5079236;28;20631;-86
2021/10/27 12:41:15;;;;;;;5.38;2.88;;;15.40;99.90;;;;;;5074196;28;20053;-86
2021/10/27 12:43:42;;;;;;;4.88;3.03;;;15.40;99.90;;;;;;5097314;28;20040;-87
2021/10/27 12:46:19;;;;;;;5.47;3.00;;;16.00;99.90;;;;;;5081608;28;20123;-86
2021/10/27 12:48:46;;;;;;;5.28;3.10;;;16.30;99.90;;;;;;5076928;28;20046;-86
2021/10/27 12:51:12;;;;;;;6.85;3.25;;;15.40;99.90;;;;;;5076308;28;20025;-87
2021/10/27 12:53:49;;;;;;;4.63;2.70;;;15.50;99.90;;;;;;5072645;28;20051;-87
2021/10/27 12:56:17;;;;;;;7.80;2.97;;;15.60;99.90;;;;;;5081713;28;20025;-86
2021/10/27 12:58:51;;;;;;;10.65;3.33;;;16.30;99.90;;;;;;5076392;28;20021;-87
2021/10/27 13:04:28;;;;;;;8.40;3.60;;;15.60;99.90;;;;;;5078767;28;20035;-87
2021/10/27 13:07:08;;;;;;;7.45;3.28;;;15.70;99.90;;;;;;5076460;28;20028;-88
2021/10/27 13:12:25;;;;;;;6.95;3.00;;;16.20;99.90;;;;;;5080719;28;20021;-87
2021/10/27 13:15:18;;;;;;;6.65;2.70;;;15.70;99.90;;;;;;5083702;28;20021;-85
2021/10/27 13:18:07;;;;;;;5.30;2.85;;;15.90;99.90;;;;;;5079135;28;20021;-84
2021/10/27 13:31:56;;;;;;;5.63;3.03;;;15.80;99.90;;;;;;5068402;28;20067;-87
2021/10/27 13:34:23;;;;;;;7.53;3.00;;;15.80;99.90;;;;;;5080732;28;20443;-88
2021/10/27 13:36:50;;;;;;;5.25;2.72;;;16.40;99.90;;;;;;5074838;28;20029;-85
2021/10/27 13:39:15;;;;;;;6.70;3.00;;;15.90;99.90;;;;;;5078419;28;20039;-86
2021/10/27 13:41:44;;;;;;;5.28;3.13;;;16.60;99.90;;;;;;5072339;28;20021;-85
2021/10/27 13:44:13;;;;;;;5.25;3.03;;;15.80;99.90;;;;;;5074981;28;20056;-84
2021/10/27 13:46:53;;;;;;;4.82;2.85;;;15.70;99.90;;;;;;5073952;28;20054;-84
2021/10/27 14:08:57;;;;;;;6.22;2.80;;;16.00;99.90;;;;;;5081099;28;20059;-85
2021/10/27 14:39:19;;;;;;;5.35;2.00;;;15.50;99.90;;;;;;5076272;28;20032;-87
2021/10/27 15:41:58;;;;;;;10.68;3.88;;;14.90;99.90;;;;;;5057842;28;20059;-86
2021/10/27 15:52:47;;;;;;;5.30;2.63;;;14.80;99.90;;;;;;5078625;28;20047;-88
2021/10/27 15:55:13;;;;;;;7.20;2.50;;;14.70;99.90;;;;;;5075338;28;20029;-84
2021/10/27 15:57:39;;;;;;;6.75;3.05;;;14.70;99.90;;;;;;5078980;28;20039;-85
2021/10/27 16:00:05;;;;;;;5.15;3.25;;;14.70;99.90;;;;;;5073425;28;20032;-88
2021/10/27 16:02:31;;;;;;;12.18;7.10;;;14.70;99.90;;;;;;5087754;28;20028;-86
2021/10/27 16:04:58;;;;;;;17.48;10.32;;;14.60;99.90;;;;;;5080183;28;20074;-86
2021/10/27 16:07:25;;;;;;;20.58;10.85;;;15.30;99.90;;;;;;5075401;28;20536;-83
2021/10/27 16:09:52;;;;;;;16.98;9.40;;;14.40;99.90;;;;;;5078636;28;20032;-86
2021/10/27 16:12:18;;;;;;;15.07;9.73;;;15.50;99.90;;;;;;5070871;28;20217;-85
2021/10/27 16:14:46;;;;;;;16.48;9.50;;;15.60;99.90;;;;;;5069422;28;20532;-86
2021/10/27 16:17:12;;;;;;;14.60;8.82;;;14.20;99.90;;;;;;5074301;28;20082;-86
2021/10/27 16:19:37;;;;;;;19.13;10.50;;;14.10;99.90;;;;;;5078141;28;20052;-86
2021/10/27 16:22:03;;;;;;;16.67;9.40;;;14.60;99.90;;;;;;5076022;28;20470;-84
2021/10/27 16:24:29;;;;;;;20.23;11.35;;;14.00;99.90;;;;;;5078244;28;20066;-88
2021/10/27 16:26:57;;;;;;;20.25;11.25;;;13.90;99.90;;;;;;5078735;28;20029;-87
2021/10/27 16:29:23;;;;;;;40.80;18.60;;;13.90;99.90;;;;;;5077206;28;20020;-87
2021/10/27 16:31:50;;;;;;;25.67;14.20;;;13.80;99.90;;;;;;5069388;28;20025;-86
2021/10/27 16:34:16;;;;;;;20.25;12.15;;;14.70;99.90;;;;;;5074216;28;20582;-87
2021/10/27 16:36:42;;;;;;;21.15;10.98;;;13.70;99.90;;;;;;5090699;28;20104;-85
2021/10/27 16:39:11;;;;;;;21.33;12.18;;;13.60;99.90;;;;;;5077110;28;20021;-85
2021/10/27 16:41:38;;;;;;;21.38;12.48;;;14.60;99.90;;;;;;5077317;28;20103;-86
2021/10/27 16:44:04;;;;;;;19.85;12.50;;;13.70;99.90;;;;;;5075250;28;20032;-86
2021/10/27 16:46:31;;;;;;;23.73;12.90;;;13.50;99.90;;;;;;5076610;28;20071;-83
2021/10/27 16:48:57;;;;;;;19.83;12.02;;;14.30;99.90;;;;;;5077870;28;20033;-84
2021/10/27 16:51:23;;;;;;;22.45;12.35;;;13.40;99.90;;;;;;5079901;28;20032;-85
2021/10/27 16:53:49;;;;;;;22.98;12.20;;;13.80;99.90;;;;;;5077067;28;20043;-87
2021/10/27 16:56:15;;;;;;;20.42;11.90;;;13.30;99.90;;;;;;5076975;28;20032;-88
2021/10/27 16:58:40;;;;;;;20.10;11.70;;;13.60;99.90;;;;;;5076185;28;20115;-83
2021/10/27 17:01:06;;;;;;;21.52;12.18;;;14.00;99.90;;;;;;5072282;28;20029;-85
2021/10/27 17:03:32;;;;;;;21.30;11.15;;;14.10;99.90;;;;;;5077723;28;20088;-86
2021/10/27 17:05:58;;;;;;;23.30;13.40;;;13.00;99.90;;;;;;5079186;28;20291;-84
2021/10/27 17:08:25;;;;;;;21.50;13.35;;;13.00;99.90;;;;;;5077150;28;20081;-88
2021/10/27 17:10:53;;;;;;;24.52;13.57;;;14.20;99.90;;;;;;5080271;28;20028;-86
2021/10/27 17:13:20;;;;;;;26.05;15.52;;;13.00;99.90;;;;;;5078179;28;20143;-83
2021/10/27 17:15:46;;;;;;;24.25;13.32;;;14.30;99.90;;;;;;5078370;28;20041;-84
2021/10/27 17:18:14;;;;;;;25.40;14.25;;;11.90;99.90;;;;;;5077617;28;20062;-86
2021/10/27 17:20:41;;;;;;;35.75;13.82;;;13.60;99.90;;;;;;5078470;28;20051;-87
2021/10/27 17:23:14;;;;;;;23.63;13.77;;;14.00;99.90;;;;;;5072399;28;20215;-85
2021/10/27 17:25:40;;;;;;;23.55;13.32;;;12.70;99.90;;;;;;5076897;28;20489;-86
2021/10/27 17:28:06;;;;;;;21.65;13.35;;;13.70;99.90;;;;;;5078617;28;20095;-86
2021/10/27 17:30:36;;;;;;;27.33;14.93;;;12.70;99.90;;;;;;5081524;28;20036;-87
2021/10/27 17:33:04;;;;;;;29.80;16.30;;;13.60;99.90;;;;;;5078191;28;20035;-86
2021/10/27 17:35:30;;;;;;;30.38;16.70;;;12.70;99.90;;;;;;5077600;28;20340;-84
2021/10/27 17:37:56;;;;;;;27.98;14.65;;;12.60;99.90;;;;;;5080598;28;20031;-86
2021/10/27 17:40:29;;;;;;;23.50;13.98;;;12.60;99.90;;;;;;5077504;28;20036;-85